createdAt,value
2018-10-17T00:00:18.179Z,97.00
2018-10-17T00:02:48.088Z,96.60
2018-10-17T00:05:17.677Z,96.30
2018-10-17T00:07:47.404Z,96.30
2018-10-17T00:10:17.328Z,96.40
2018-10-17T00:12:46.977Z,96.40
2018-10-17T00:15:16.603Z,97.10
2018-10-17T00:17:46.209Z,98.50
2018-10-17T00:20:15.758Z,97.70
2018-10-17T00:22:45.403Z,97.40
2018-10-17T00:25:15.200Z,97.70
2018-10-17T00:27:44.562Z,97.50
2018-10-17T00:30:14.579Z,97.20
2018-10-17T00:32:44.168Z,97.20
2018-10-17T00:35:13.724Z,97.40
2018-10-17T00:37:43.242Z,97.40
2018-10-17T00:40:12.926Z,97.30
2018-10-17T00:42:42.454Z,97.20
2018-10-17T00:45:11.737Z,97.40
2018-10-17T00:47:41.356Z,97.30
2018-10-17T00:50:11.057Z,97.00
2018-10-17T00:52:40.584Z,96.90
2018-10-17T00:55:10.261Z,96.60
2018-10-17T00:57:39.694Z,96.50
2018-10-17T01:00:09.362Z,98.00
2018-10-17T01:02:38.992Z,99.60
2018-10-17T01:05:08.747Z,99.40
2018-10-17T01:07:38.243Z,98.40
2018-10-17T01:10:07.858Z,97.80
2018-10-17T01:12:37.412Z,97.60
2018-10-17T01:15:07.129Z,97.50
2018-10-17T01:17:36.849Z,97.60
2018-10-17T01:20:08.495Z,97.60
2018-10-17T01:22:38.621Z,97.50
2018-10-17T01:25:08.711Z,97.20
2018-10-17T01:27:38.238Z,96.70
2018-10-17T01:30:08.540Z,96.80
2018-10-17T01:32:38.100Z,96.40
2018-10-17T01:35:08.312Z,96.90
2018-10-17T01:37:37.860Z,97.60
2018-10-17T01:40:08.873Z,97.80
2018-10-17T01:42:38.530Z,97.30
2018-10-17T01:45:09.449Z,97.20
2018-10-17T01:47:38.948Z,96.90
2018-10-17T01:50:09.465Z,97.00
2018-10-17T01:52:38.984Z,97.30
2018-10-17T01:55:08.902Z,97.40
2018-10-17T01:57:38.545Z,97.10
2018-10-17T02:00:08.544Z,97.20
2018-10-17T02:02:38.089Z,97.30
2018-10-17T02:05:07.818Z,96.90
2018-10-17T02:07:37.433Z,96.90
2018-10-17T02:10:07.053Z,97.20
2018-10-17T02:12:36.699Z,97.70
2018-10-17T02:15:06.812Z,97.80
2018-10-17T02:17:36.423Z,96.50
2018-10-17T02:20:06.540Z,97.20
2018-10-17T02:22:36.257Z,97.70
2018-10-17T02:25:07.200Z,97.30
2018-10-17T02:27:37.625Z,97.20
2018-10-17T02:30:08.458Z,97.50
2018-10-17T02:32:38.163Z,97.40
2018-10-17T02:35:13.247Z,97.70
2018-10-17T02:37:49.427Z,97.80
2018-10-17T02:40:18.970Z,98.20
2018-10-17T02:42:48.621Z,98.20
2018-10-17T02:45:18.305Z,98.20
2018-10-17T02:47:47.863Z,98.00
2018-10-17T02:50:18.364Z,97.90
2018-10-17T02:52:47.888Z,97.50
2018-10-17T02:55:17.759Z,97.80
2018-10-17T02:57:47.550Z,97.30
2018-10-17T03:00:17.128Z,97.60
2018-10-17T03:02:47.104Z,97.90
2018-10-17T03:05:16.895Z,97.90
2018-10-17T03:07:46.379Z,97.60
2018-10-17T03:10:15.928Z,97.80
2018-10-17T03:12:45.629Z,97.90
2018-10-17T03:15:15.331Z,97.70
2018-10-17T03:17:45.020Z,97.40
2018-10-17T03:20:14.888Z,97.50
2018-10-17T03:22:44.475Z,97.50
2018-10-17T03:25:14.399Z,97.90
2018-10-17T03:27:44.216Z,98.70
2018-10-17T03:30:13.799Z,98.50
2018-10-17T03:32:43.413Z,97.80
2018-10-17T03:35:13.047Z,97.70
2018-10-17T03:37:42.550Z,97.80
2018-10-17T03:40:12.171Z,98.10
2018-10-17T03:42:42.740Z,98.20
2018-10-17T03:45:12.329Z,98.20
2018-10-17T03:47:41.907Z,98.00
2018-10-17T03:50:11.651Z,97.80
2018-10-17T03:52:41.274Z,98.00
2018-10-17T03:55:10.901Z,97.70
2018-10-17T03:57:40.594Z,97.50
2018-10-17T04:00:10.149Z,97.70
2018-10-17T04:02:39.863Z,98.20
2018-10-17T04:05:09.507Z,97.80
2018-10-17T04:07:39.237Z,98.00
2018-10-17T04:10:08.940Z,98.00
2018-10-17T04:12:38.629Z,97.70
2018-10-17T04:15:08.525Z,97.70
2018-10-17T04:17:38.460Z,97.80
2018-10-17T04:20:08.089Z,97.60
2018-10-17T04:22:37.678Z,97.60
2018-10-17T04:25:07.546Z,97.90
2018-10-17T04:27:37.126Z,97.70
2018-10-17T04:30:07.735Z,97.90
2018-10-17T04:32:37.533Z,97.50
2018-10-17T04:35:07.877Z,97.50
2018-10-17T04:37:37.865Z,97.70
2018-10-17T04:45:07.373Z,98.10
2018-10-17T04:47:37.053Z,97.90
2018-10-17T04:50:08.706Z,97.90
2018-10-17T04:52:38.475Z,98.00
2018-10-17T04:55:09.210Z,98.10
2018-10-17T04:57:39.183Z,98.00
2018-10-17T05:00:11.998Z,98.20
2018-10-17T05:02:43.034Z,97.80
2018-10-17T05:05:13.294Z,97.90
2018-10-17T05:07:43.163Z,97.30
2018-10-17T05:10:12.805Z,97.40
2018-10-17T05:12:42.441Z,97.50
2018-10-17T05:15:12.150Z,97.40
2018-10-17T05:17:41.873Z,97.40
2018-10-17T05:20:11.695Z,97.70
2018-10-17T05:22:41.380Z,97.60
2018-10-17T05:25:11.129Z,97.80
2018-10-17T05:27:40.614Z,97.30
2018-10-17T05:30:10.445Z,97.40
2018-10-17T05:32:40.358Z,97.40
2018-10-17T05:35:09.950Z,97.80
2018-10-17T05:37:39.748Z,98.10
2018-10-17T05:40:09.448Z,97.80
2018-10-17T05:42:39.188Z,97.70
2018-10-17T05:45:09.285Z,97.70
2018-10-17T05:47:39.201Z,97.80
2018-10-17T05:50:09.300Z,97.70
2018-10-17T05:52:38.912Z,97.90
2018-10-17T05:55:08.766Z,98.40
2018-10-17T05:57:38.217Z,98.60
2018-10-17T06:00:08.950Z,98.50
2018-10-17T06:02:39.297Z,98.50
2018-10-17T06:05:09.927Z,98.60
2018-10-17T06:07:39.503Z,99.00
2018-10-17T06:10:10.442Z,99.30
2018-10-17T06:12:40.048Z,99.90
2018-10-17T06:15:09.734Z,99.90
2018-10-17T06:17:39.242Z,99.90
2018-10-17T06:20:09.236Z,99.90
2018-10-17T06:22:38.780Z,99.80
2018-10-17T06:25:09.028Z,99.90
2018-10-17T06:27:38.575Z,99.80
2018-10-17T06:30:10.064Z,99.80
2018-10-17T06:32:40.690Z,99.70
2018-10-17T06:35:10.680Z,99.30
2018-10-17T06:37:40.202Z,99.70
2018-10-17T06:40:10.551Z,99.70
2018-10-17T06:42:40.178Z,99.70
2018-10-17T06:45:10.411Z,99.60
2018-10-17T06:47:40.141Z,99.40
2018-10-17T06:50:10.259Z,99.90
2018-10-17T06:52:39.815Z,99.90
2018-10-17T06:55:10.576Z,99.80
2018-10-17T06:57:40.175Z,99.90
2018-10-17T07:00:10.971Z,99.90
2018-10-17T07:02:40.719Z,99.90
2018-10-17T07:05:11.400Z,99.90
2018-10-17T07:07:41.374Z,99.90
2018-10-17T07:10:10.986Z,99.90
2018-10-17T07:12:40.845Z,99.80
2018-10-17T07:15:17.057Z,99.60
2018-10-17T07:17:46.739Z,99.30
2018-10-17T07:20:16.693Z,99.80
2018-10-17T07:22:46.325Z,99.80
2018-10-17T07:25:16.013Z,99.70
2018-10-17T07:27:45.787Z,99.60
2018-10-17T07:30:15.440Z,99.40
2018-10-17T07:32:45.159Z,99.80
2018-10-17T07:35:14.971Z,99.70
2018-10-17T07:37:44.653Z,99.50
2018-10-17T07:40:14.227Z,99.40
2018-10-17T07:42:43.842Z,99.10
2018-10-17T07:45:13.442Z,99.30
2018-10-17T07:47:43.231Z,99.30
2018-10-17T07:50:13.240Z,98.80
2018-10-17T07:52:42.872Z,99.00
2018-10-17T07:55:12.946Z,98.90
2018-10-17T07:57:42.708Z,99.00
2018-10-17T08:00:14.125Z,99.00
2018-10-17T08:02:43.688Z,99.00
2018-10-17T08:05:14.443Z,98.70
2018-10-17T08:07:44.056Z,98.50
2018-10-17T08:10:13.635Z,98.30
2018-10-17T08:12:43.162Z,98.50
2018-10-17T08:15:12.712Z,98.70
2018-10-17T08:17:42.245Z,97.80
2018-10-17T08:20:12.904Z,97.60
2018-10-17T08:22:42.505Z,97.60
2018-10-17T08:25:13.270Z,97.50
2018-10-17T08:27:43.556Z,97.00
2018-10-17T08:30:13.309Z,96.60
2018-10-17T08:32:42.981Z,96.40
2018-10-17T08:35:13.195Z,96.40
2018-10-17T08:37:43.369Z,95.90
2018-10-17T08:40:12.741Z,95.60
2018-10-17T08:42:42.360Z,95.40
2018-10-17T08:45:12.138Z,94.80
2018-10-17T08:47:41.606Z,94.90
2018-10-17T08:50:11.245Z,94.90
2018-10-17T08:52:40.972Z,94.40
2018-10-17T08:55:10.756Z,94.50
2018-10-17T08:57:40.632Z,94.40
2018-10-17T09:00:10.503Z,94.30
2018-10-17T09:02:40.168Z,94.40
2018-10-17T09:05:09.872Z,94.20
2018-10-17T09:07:40.116Z,94.30
2018-10-17T09:10:10.105Z,94.50
2018-10-17T09:12:40.092Z,94.60
2018-10-17T09:15:10.404Z,94.50
2018-10-17T09:17:40.199Z,94.50
2018-10-17T09:20:11.025Z,94.60
2018-10-17T09:22:40.824Z,94.60
2018-10-17T09:25:10.545Z,94.40
2018-10-17T09:27:40.542Z,94.60
2018-10-17T09:30:11.639Z,94.60
2018-10-17T09:32:41.391Z,94.50
2018-10-17T09:35:12.249Z,94.30
2018-10-17T09:37:41.736Z,94.10
2018-10-17T09:40:11.863Z,94.00
2018-10-17T09:42:41.831Z,93.30
2018-10-17T09:45:11.945Z,93.50
2018-10-17T09:47:41.660Z,93.30
2018-10-17T09:50:11.587Z,92.80
2018-10-17T09:52:41.320Z,92.60
2018-10-17T09:55:10.911Z,92.60
2018-10-17T09:57:40.531Z,92.30
2018-10-17T10:00:15.610Z,92.30
2018-10-17T10:02:45.165Z,92.40
2018-10-17T10:05:14.857Z,92.00
2018-10-17T10:07:44.600Z,92.00
2018-10-17T10:10:14.253Z,91.70
2018-10-17T10:12:43.856Z,91.80
2018-10-17T10:15:13.631Z,91.40
2018-10-17T10:17:43.423Z,91.10
2018-10-17T10:20:13.091Z,91.20
2018-10-17T10:22:42.794Z,91.00
2018-10-17T10:25:12.547Z,90.70
2018-10-17T10:27:42.226Z,90.70
2018-10-17T10:30:11.987Z,90.80
2018-10-17T10:32:41.498Z,90.40
2018-10-17T10:35:12.206Z,90.00
2018-10-17T10:37:41.796Z,90.20
2018-10-17T10:40:11.561Z,90.00
2018-10-17T10:42:41.128Z,89.80
2018-10-17T10:45:11.025Z,90.30
2018-10-17T10:47:40.437Z,90.20
2018-10-17T10:50:10.996Z,89.80
2018-10-17T10:52:40.694Z,88.70
2018-10-17T10:55:10.350Z,89.40
2018-10-17T10:57:40.056Z,89.30
2018-10-17T11:00:09.932Z,85.80
2018-10-17T11:02:39.802Z,84.80
2018-10-17T11:05:09.740Z,85.20
2018-10-17T11:07:39.567Z,85.80
2018-10-17T11:10:09.423Z,84.10
2018-10-17T11:12:39.001Z,82.80
2018-10-17T11:15:09.415Z,83.10
2018-10-17T11:17:39.122Z,83.10
2018-10-17T11:20:09.672Z,82.90
2018-10-17T11:22:39.322Z,82.10
2018-10-17T11:25:09.915Z,82.80
2018-10-17T11:27:39.462Z,82.60
2018-10-17T11:30:10.997Z,83.00
2018-10-17T11:32:41.026Z,82.30
2018-10-17T11:35:11.848Z,82.20
2018-10-17T11:37:41.540Z,82.40
2018-10-17T11:40:11.208Z,82.90
2018-10-17T11:42:41.100Z,81.70
2018-10-17T11:45:10.773Z,81.10
2018-10-17T11:47:40.637Z,81.50
2018-10-17T11:50:11.291Z,82.40
2018-10-17T11:52:41.122Z,81.50
2018-10-17T11:55:10.771Z,80.70
2018-10-17T11:57:40.420Z,80.80
2018-10-17T12:00:12.486Z,81.20
2018-10-17T12:02:42.161Z,80.60
2018-10-17T12:05:14.050Z,81.10
2018-10-17T12:07:43.685Z,80.70
2018-10-17T12:10:13.341Z,81.50
2018-10-17T12:12:43.209Z,81.20
2018-10-17T12:15:14.591Z,80.00
2018-10-17T12:17:44.176Z,79.80
2018-10-17T12:20:15.031Z,77.90
2018-10-17T12:22:45.395Z,77.70
2018-10-17T12:25:15.605Z,76.40
2018-10-17T12:27:45.415Z,75.90
2018-10-17T12:30:15.911Z,76.20
2018-10-17T12:32:45.804Z,76.70
2018-10-17T12:35:15.782Z,76.70
2018-10-17T12:37:46.630Z,77.30
2018-10-17T12:40:17.763Z,78.10
2018-10-17T12:42:48.467Z,78.20
2018-10-17T12:45:18.199Z,78.10
2018-10-17T12:47:47.872Z,78.30
2018-10-17T12:50:17.564Z,78.40
2018-10-17T12:52:47.189Z,78.40
2018-10-17T12:55:17.237Z,78.40
2018-10-17T12:57:46.982Z,78.60
2018-10-17T13:00:16.857Z,79.20
2018-10-17T13:02:46.467Z,77.80
2018-10-17T13:05:16.186Z,78.00
2018-10-17T13:07:45.937Z,78.30
2018-10-17T13:10:15.505Z,79.20
2018-10-17T13:12:45.135Z,79.10
2018-10-17T13:15:15.146Z,79.20
2018-10-17T13:17:45.839Z,79.20
2018-10-17T13:20:15.745Z,78.50
2018-10-17T13:22:45.531Z,77.20
2018-10-17T13:25:15.358Z,77.00
2018-10-17T13:27:44.906Z,75.40
2018-10-17T13:30:14.519Z,75.40
2018-10-17T13:32:44.297Z,76.10
2018-10-17T13:35:15.018Z,76.10
2018-10-17T13:37:44.605Z,75.60
2018-10-17T13:40:15.007Z,76.10
2018-10-17T13:42:44.905Z,76.50
2018-10-17T13:45:14.477Z,76.20
2018-10-17T13:47:44.137Z,76.00
2018-10-17T13:50:13.812Z,75.60
2018-10-17T13:52:43.615Z,74.50
2018-10-17T13:55:13.431Z,73.60
2018-10-17T13:57:43.115Z,72.20
2018-10-17T14:00:13.591Z,73.20
2018-10-17T14:02:44.662Z,73.30
2018-10-17T14:05:14.783Z,71.90
2018-10-17T14:07:44.356Z,71.80
2018-10-17T14:10:14.125Z,72.50
2018-10-17T14:12:43.859Z,73.50
2018-10-17T14:15:13.729Z,74.90
2018-10-17T14:17:43.337Z,74.70
2018-10-17T14:20:12.963Z,74.80
2018-10-17T14:22:42.791Z,73.10
2018-10-17T14:25:12.505Z,73.30
2018-10-17T14:27:42.241Z,73.20
2018-10-17T14:30:12.222Z,72.10
2018-10-17T14:32:41.815Z,72.70
2018-10-17T14:40:09.770Z,74.00
2018-10-17T14:42:39.401Z,74.90
2018-10-17T14:45:10.721Z,74.90
2018-10-17T14:47:40.654Z,74.80
2018-10-17T14:50:10.463Z,74.40
2018-10-17T14:52:40.396Z,74.20
2018-10-17T14:55:10.416Z,73.90
2018-10-17T14:57:40.008Z,73.80
2018-10-17T15:00:13.827Z,74.10
2018-10-17T15:02:44.107Z,75.20
2018-10-17T15:05:13.913Z,75.80
2018-10-17T15:07:44.088Z,76.50
2018-10-17T15:10:13.945Z,77.10
2018-10-17T15:12:43.555Z,78.20
2018-10-17T15:15:13.863Z,78.80
2018-10-17T15:17:43.501Z,79.30
2018-10-17T15:20:13.466Z,80.10
2018-10-17T15:22:43.117Z,80.40
2018-10-17T15:25:12.780Z,80.30
2018-10-17T15:27:42.447Z,80.30
2018-10-17T15:30:12.265Z,80.10
2018-10-17T15:32:42.266Z,80.50
2018-10-17T15:35:12.077Z,81.20
2018-10-17T15:37:42.092Z,81.90
2018-10-17T15:40:11.971Z,82.40
2018-10-17T15:42:41.722Z,83.00
2018-10-17T15:45:11.765Z,83.60
2018-10-17T15:47:44.403Z,84.20
2018-10-17T15:50:14.306Z,84.60
2018-10-17T15:52:45.302Z,85.00
2018-10-17T15:55:16.749Z,85.40
2018-10-17T15:57:47.568Z,85.90
2018-10-17T16:05:14.947Z,86.70
2018-10-17T16:07:44.657Z,87.40
2018-10-17T16:10:14.413Z,87.50
2018-10-17T16:12:44.290Z,87.70
2018-10-17T16:15:14.027Z,87.80
2018-10-17T16:17:43.673Z,88.30
2018-10-17T16:20:13.632Z,88.50
2018-10-17T16:22:43.544Z,88.70
2018-10-17T16:25:13.403Z,89.20
2018-10-17T16:27:43.218Z,89.50
2018-10-17T16:30:13.254Z,89.70
2018-10-17T16:32:42.958Z,89.80
2018-10-17T16:35:12.754Z,90.00
2018-10-17T16:37:42.447Z,90.10
2018-10-17T16:40:12.160Z,90.10
2018-10-17T16:42:42.052Z,90.30
2018-10-17T16:45:12.469Z,90.40
2018-10-17T16:47:42.440Z,90.50
2018-10-17T16:50:12.142Z,90.50
2018-10-17T16:52:41.826Z,90.60
2018-10-17T16:55:11.508Z,90.80
2018-10-17T16:57:41.252Z,91.00
2018-10-17T17:00:11.859Z,91.20
2018-10-17T17:02:41.724Z,91.20
2018-10-17T17:05:14.522Z,91.40
2018-10-17T17:07:44.243Z,91.50
2018-10-17T17:10:15.173Z,91.60
2018-10-17T17:12:45.182Z,91.80
2018-10-17T17:15:15.187Z,91.80
2018-10-17T17:17:45.803Z,91.90
2018-10-17T17:20:15.734Z,91.70
2018-10-17T17:22:45.653Z,91.80
2018-10-17T17:25:15.662Z,91.90
2018-10-17T17:27:45.558Z,92.40
2018-10-17T17:30:17.402Z,92.30
2018-10-17T17:32:48.109Z,92.30
2018-10-17T17:37:49.163Z,93.50
2018-10-17T17:40:19.154Z,93.90
2018-10-17T17:42:48.752Z,93.50
2018-10-17T17:45:18.655Z,94.30
2018-10-17T17:47:48.463Z,93.70
2018-10-17T17:50:19.301Z,93.10
2018-10-17T17:52:49.358Z,93.10
2018-10-17T17:55:19.128Z,92.50
2018-10-17T17:57:48.910Z,92.20
2018-10-17T18:00:18.659Z,91.70
2018-10-17T18:02:48.474Z,91.50
2018-10-17T18:05:18.329Z,91.90
2018-10-17T18:07:48.129Z,92.10
2018-10-17T18:10:17.963Z,92.30
2018-10-17T18:12:47.988Z,92.50
2018-10-17T18:15:18.025Z,93.30
2018-10-17T18:17:47.874Z,93.50
2018-10-17T18:20:17.777Z,93.50
2018-10-17T18:22:47.690Z,93.70
2018-10-17T18:25:17.534Z,93.80
2018-10-17T18:27:48.075Z,93.90
2018-10-17T18:30:17.864Z,93.80
2018-10-17T18:32:48.036Z,93.90
2018-10-17T18:35:18.030Z,93.90
2018-10-17T18:37:47.823Z,94.20
2018-10-17T18:40:17.783Z,94.30
2018-10-17T18:42:47.447Z,94.50
2018-10-17T18:45:17.255Z,94.60
2018-10-17T18:47:47.115Z,94.90
2018-10-17T18:50:16.975Z,94.80
2018-10-17T18:52:46.684Z,94.90
2018-10-17T18:55:16.528Z,94.90
2018-10-17T18:57:46.218Z,95.00
2018-10-17T19:00:16.018Z,95.20
2018-10-17T19:02:45.719Z,95.40
2018-10-17T19:05:15.577Z,95.30
2018-10-17T19:07:45.219Z,95.30
2018-10-17T19:10:15.024Z,95.50
2018-10-17T19:12:44.923Z,95.60
2018-10-17T19:15:14.976Z,95.60
2018-10-17T19:17:44.994Z,95.60
2018-10-17T19:20:14.997Z,96.00
2018-10-17T19:22:44.995Z,95.90
2018-10-17T19:25:14.866Z,96.10
2018-10-17T19:27:44.590Z,96.00
2018-10-17T19:30:14.530Z,96.10
2018-10-17T19:32:44.300Z,96.10
2018-10-17T19:35:14.262Z,96.00
2018-10-17T19:37:44.173Z,96.00
2018-10-17T19:40:14.200Z,96.00
2018-10-17T19:42:43.970Z,96.10
2018-10-17T19:45:14.701Z,96.40
2018-10-17T19:47:44.380Z,96.60
2018-10-17T19:50:14.352Z,96.60
2018-10-17T19:52:44.074Z,96.70
2018-10-17T19:55:13.687Z,96.80
2018-10-17T19:57:43.508Z,96.90
2018-10-17T20:00:14.761Z,96.90
2018-10-17T20:02:44.739Z,97.00
2018-10-17T20:05:14.644Z,96.90
2018-10-17T20:07:44.498Z,96.90
2018-10-17T20:10:14.288Z,96.90
2018-10-17T20:12:44.036Z,97.10
2018-10-17T20:15:13.872Z,97.20
2018-10-17T20:17:43.610Z,97.30
2018-10-17T20:20:13.413Z,97.60
2018-10-17T20:22:43.281Z,97.90
2018-10-17T20:25:13.456Z,97.60
2018-10-17T20:27:43.209Z,97.70
2018-10-17T20:30:12.984Z,97.60
2018-10-17T20:32:42.759Z,97.50
2018-10-17T20:35:12.421Z,97.70
2018-10-17T20:37:42.135Z,97.80
2018-10-17T20:40:12.148Z,97.90
2018-10-17T20:42:43.146Z,98.40
2018-10-17T20:45:13.132Z,98.80
2018-10-17T20:47:43.121Z,98.80
2018-10-17T20:50:13.087Z,98.50
2018-10-17T20:52:42.812Z,98.60
2018-10-17T20:55:12.561Z,98.70
2018-10-17T20:57:42.263Z,98.80
2018-10-17T21:00:12.323Z,98.70
2018-10-17T21:02:42.203Z,98.40
2018-10-17T21:05:11.974Z,98.60
2018-10-17T21:07:41.757Z,98.80
2018-10-17T21:10:11.437Z,99.10
2018-10-17T21:12:41.284Z,99.30
2018-10-17T21:15:11.106Z,99.20
2018-10-17T21:17:41.215Z,99.10
2018-10-17T21:20:10.921Z,99.10
2018-10-17T21:22:40.718Z,99.40
2018-10-17T21:25:10.600Z,99.10
2018-10-17T21:27:40.524Z,98.90
2018-10-17T21:30:11.410Z,98.70
2018-10-17T21:32:41.257Z,99.00
2018-10-17T21:35:11.039Z,99.40
2018-10-17T21:37:40.688Z,99.90
2018-10-17T21:40:09.882Z,99.90
2018-10-17T21:42:39.575Z,99.00
2018-10-17T21:45:09.318Z,99.10
2018-10-17T21:47:39.113Z,99.00
2018-10-17T21:50:08.838Z,98.90
2018-10-17T21:52:38.552Z,99.00
2018-10-17T21:55:08.320Z,99.50
2018-10-17T21:57:38.343Z,99.90
2018-10-17T22:00:10.235Z,99.90
2018-10-17T22:02:40.604Z,99.80
2018-10-17T22:05:11.008Z,99.60
2018-10-17T22:07:40.716Z,99.40
2018-10-17T22:10:10.433Z,99.60
2018-10-17T22:12:40.107Z,99.50
2018-10-17T22:15:10.488Z,99.50
2018-10-17T22:17:40.112Z,99.40
2018-10-17T22:20:10.097Z,99.30
2018-10-17T22:22:39.764Z,99.60
2018-10-17T22:25:09.452Z,99.50
2018-10-17T22:27:39.122Z,99.70
2018-10-17T22:30:08.909Z,99.70
2018-10-17T22:32:38.464Z,99.60
2018-10-17T22:35:08.338Z,99.90
2018-10-17T22:37:37.922Z,99.90
2018-10-17T22:40:10.419Z,99.90
2018-10-17T22:42:40.208Z,99.90
2018-10-17T22:45:09.913Z,99.90
2018-10-17T22:47:39.573Z,99.90
2018-10-17T22:50:10.491Z,99.90
2018-10-17T22:52:40.414Z,99.90
2018-10-17T22:55:10.488Z,99.90
2018-10-17T22:57:40.412Z,99.90
2018-10-17T23:00:10.703Z,99.90
2018-10-17T23:02:40.479Z,99.90
2018-10-17T23:05:10.220Z,99.90
2018-10-17T23:07:39.874Z,99.90
2018-10-17T23:10:09.527Z,99.90
2018-10-17T23:12:39.371Z,99.90
2018-10-17T23:15:15.903Z,99.90
2018-10-17T23:17:45.472Z,99.90
2018-10-17T23:20:15.213Z,99.90
2018-10-17T23:22:44.785Z,99.90
2018-10-17T23:25:14.552Z,99.90
2018-10-17T23:27:44.364Z,99.90
2018-10-17T23:30:14.015Z,99.90
2018-10-17T23:32:43.603Z,99.90
2018-10-17T23:35:13.450Z,99.60
2018-10-17T23:37:42.999Z,99.50
2018-10-17T23:40:12.643Z,99.60
2018-10-17T23:42:42.380Z,99.90
2018-10-17T23:45:12.959Z,99.90
2018-10-17T23:47:42.824Z,99.90
2018-10-17T23:50:12.410Z,99.90
2018-10-17T23:52:42.151Z,99.90
2018-10-17T23:55:11.770Z,99.90
2018-10-17T23:57:41.459Z,99.90
